createdAt,value
2019-02-27T00:19:44.344Z,98782.05
2019-02-27T00:22:22.587Z,98773.23
2019-02-27T00:25:03.443Z,98787.95
2019-02-27T00:31:48.076Z,98784.14
2019-02-27T00:34:33.559Z,98780.48
2019-02-27T00:37:56.784Z,98796.22
2019-02-27T00:40:41.478Z,98790.16
2019-02-27T00:50:11.714Z,98790.56
2019-02-27T00:50:15.669Z,98793.05
2019-02-27T01:27:11.001Z,98791.81
2019-02-27T01:29:43.809Z,98798.23
2019-02-27T01:32:14.222Z,98797.91
2019-02-27T01:34:45.089Z,98798.30
2019-02-27T01:37:15.510Z,98793.05
2019-02-27T01:39:47.931Z,98805.64
2019-02-27T01:42:18.417Z,98806.72
2019-02-27T02:27:27.775Z,98809.80
2019-02-27T02:30:17.730Z,98810.27
2019-02-27T02:32:59.817Z,98817.27
2019-02-27T02:35:51.321Z,98814.65
2019-02-27T02:38:57.805Z,98809.98
2019-02-27T02:41:49.185Z,98816.16
2019-02-27T02:44:28.457Z,98811.63
2019-02-27T02:47:33.574Z,98818.89
2019-02-27T02:50:31.041Z,98822.20
2019-02-27T02:53:07.269Z,98817.53
2019-02-27T02:56:11.999Z,98821.59
2019-02-27T02:58:48.934Z,98820.55
2019-02-27T03:01:25.236Z,98824.61
2019-02-27T03:04:13.738Z,98829.26
2019-02-27T03:06:55.859Z,98831.52
2019-02-27T03:09:44.105Z,98837.20
2019-02-27T03:12:44.707Z,98838.52
2019-02-27T03:15:21.090Z,98838.59
2019-02-27T03:18:10.969Z,98846.52
2019-02-27T03:20:53.340Z,98843.03
2019-02-27T03:23:50.985Z,98851.64
2019-02-27T03:26:33.232Z,98849.48
2019-02-27T03:29:17.343Z,98853.08
2019-02-27T03:32:00.245Z,98854.06
2019-02-27T03:34:48.259Z,98859.98
2019-02-27T03:37:21.706Z,98860.62
2019-02-27T03:40:01.015Z,98858.33
2019-02-27T03:42:58.373Z,98854.40
2019-02-27T03:45:43.629Z,98866.55
2019-02-27T03:48:50.252Z,98861.30
2019-02-27T03:51:41.408Z,98863.11
2019-02-27T03:54:20.907Z,98861.09
2019-02-27T03:57:02.138Z,98866.52
2019-02-27T03:59:47.303Z,98863.89
2019-02-27T04:02:30.017Z,98866.02
2019-02-27T04:05:09.082Z,98872.03
2019-02-27T04:08:09.410Z,98878.61
2019-02-27T04:10:39.863Z,98876.97
2019-02-27T04:13:10.285Z,98885.81
2019-02-27T04:15:40.853Z,98879.80
2019-02-27T04:18:11.577Z,98883.86
2019-02-27T04:20:42.003Z,98892.97
2019-02-27T04:23:12.820Z,98887.54
2019-02-27T04:25:43.331Z,98899.48
2019-02-27T04:28:13.763Z,98893.97
2019-02-27T04:30:44.135Z,98887.28
2019-02-27T04:33:14.614Z,98899.09
2019-02-27T04:35:45.039Z,98892.90
2019-02-27T04:38:15.433Z,98908.41
2019-02-27T04:40:45.846Z,98912.27
2019-02-27T04:43:17.771Z,98907.67
2019-02-27T04:45:48.211Z,98914.95
2019-02-27T04:48:18.774Z,98911.48
2019-02-27T04:50:49.217Z,98921.39
2019-02-27T04:53:19.742Z,98926.89
2019-02-27T04:55:50.552Z,98931.88
2019-02-27T04:58:21.645Z,98931.11
2019-02-27T05:00:54.141Z,98930.56
2019-02-27T05:03:28.529Z,98938.65
2019-02-27T05:05:59.081Z,98931.24
2019-02-27T05:08:29.654Z,98930.64
2019-02-27T05:11:00.162Z,98939.23
2019-02-27T05:13:30.576Z,98939.56
2019-02-27T05:16:01.052Z,98950.39
2019-02-27T05:18:31.533Z,98937.94
2019-02-27T05:21:02.140Z,98941.06
2019-02-27T05:23:34.208Z,98951.20
2019-02-27T05:26:04.655Z,98955.92
2019-02-27T05:28:35.619Z,98953.28
2019-02-27T05:31:06.097Z,98962.67
2019-02-27T05:33:44.814Z,98969.03
2019-02-27T05:36:15.230Z,98965.17
2019-02-27T05:38:45.896Z,98960.50
2019-02-27T05:41:24.942Z,98963.70
2019-02-27T05:43:55.815Z,98968.95
2019-02-27T05:46:26.402Z,98973.08
2019-02-27T05:48:56.827Z,98982.75
2019-02-27T05:51:27.233Z,98977.97
2019-02-27T05:53:59.274Z,98975.70
2019-02-27T05:56:29.753Z,98977.88
2019-02-27T05:59:00.328Z,98975.14
2019-02-27T06:01:30.799Z,98980.36
2019-02-27T06:04:02.799Z,98977.89
2019-02-27T06:06:33.214Z,98987.67
2019-02-27T06:09:04.107Z,98992.41
2019-02-27T06:11:34.544Z,98992.05
2019-02-27T06:14:06.551Z,98986.77
2019-02-27T06:16:38.850Z,98999.00
2019-02-27T06:19:09.148Z,98993.63
2019-02-27T06:21:48.491Z,98996.30
2019-02-27T06:24:18.983Z,98994.94
2019-02-27T06:26:49.457Z,98997.47
2019-02-27T06:29:23.266Z,98996.83
2019-02-27T06:31:53.770Z,98990.88
2019-02-27T06:34:27.853Z,98992.58
2019-02-27T06:36:58.481Z,98988.59
2019-02-27T06:39:28.902Z,98988.80
2019-02-27T06:42:01.922Z,99011.80
2019-02-27T06:44:39.143Z,99006.03
2019-02-27T06:47:08.838Z,98999.31
2019-02-27T06:49:39.267Z,99005.27
2019-02-27T06:52:09.886Z,99005.01
2019-02-27T06:54:41.603Z,99012.51
2019-02-27T06:57:12.060Z,99006.34
2019-02-27T06:59:42.496Z,99005.80
2019-02-27T07:02:12.943Z,99008.19
2019-02-27T07:04:43.403Z,99007.97
2019-02-27T07:07:17.125Z,99010.25
2019-02-27T07:09:47.543Z,99013.66
2019-02-27T07:12:21.643Z,99013.94
2019-02-27T07:14:50.843Z,99010.80
2019-02-27T07:17:29.174Z,99006.44
2019-02-27T07:20:02.320Z,99017.53
2019-02-27T07:22:32.810Z,99006.59
2019-02-27T07:25:06.655Z,99015.23
2019-02-27T07:27:37.037Z,99011.42
2019-02-27T07:30:15.582Z,99016.14
2019-02-27T07:32:48.257Z,99027.20
2019-02-27T07:35:18.746Z,99017.73
2019-02-27T07:37:49.202Z,99018.98
2019-02-27T07:40:20.629Z,99020.26
2019-02-27T07:42:51.135Z,99018.59
2019-02-27T07:45:22.796Z,99028.30
2019-02-27T07:47:53.370Z,99009.87
2019-02-27T07:50:32.720Z,99022.45
2019-02-27T07:53:04.755Z,99023.57
2019-02-27T07:55:35.282Z,99026.54
2019-02-27T07:58:05.639Z,99031.30
2019-02-27T08:00:35.964Z,99027.62
2019-02-27T08:03:34.072Z,99037.48
2019-02-27T08:06:04.529Z,99032.77
2019-02-27T08:08:35.518Z,99031.69
2019-02-27T08:11:06.273Z,99035.97
2019-02-27T08:13:36.674Z,99030.44
2019-02-27T08:16:09.121Z,99035.00
2019-02-27T08:18:39.019Z,99040.17
2019-02-27T08:21:09.352Z,99047.38
2019-02-27T08:23:39.806Z,99041.59
2019-02-27T08:26:12.355Z,99039.48
2019-02-27T08:28:43.197Z,99049.82
2019-02-27T08:31:13.640Z,99047.75
2019-02-27T08:33:44.904Z,99042.53
2019-02-27T08:36:15.592Z,99047.97
2019-02-27T08:38:46.224Z,99055.52
2019-02-27T08:41:18.262Z,99068.17
2019-02-27T08:43:48.579Z,99057.09
2019-02-27T08:46:20.678Z,99049.48
2019-02-27T08:48:51.111Z,99049.91
2019-02-27T08:51:21.522Z,99062.65
2019-02-27T08:53:52.080Z,99053.66
2019-02-27T08:56:23.204Z,99060.15
2019-02-27T08:58:53.624Z,99052.81
2019-02-27T09:01:24.113Z,99058.20
2019-02-27T09:03:54.514Z,99055.98
2019-02-27T09:06:27.473Z,99071.42
2019-02-27T09:08:57.039Z,99049.06
2019-02-27T09:11:27.346Z,99052.92
2019-02-27T09:13:57.745Z,99066.52
2019-02-27T09:16:28.524Z,99068.84
2019-02-27T09:18:58.824Z,99057.89
2019-02-27T09:21:29.190Z,99063.91
2019-02-27T09:23:59.671Z,99057.75
2019-02-27T09:26:36.064Z,99060.98
2019-02-27T09:29:11.763Z,99064.19
2019-02-27T09:31:50.500Z,99066.21
2019-02-27T09:34:14.331Z,99059.47
2019-02-27T09:36:59.899Z,99062.70
2019-02-27T09:39:31.137Z,99056.84
2019-02-27T09:42:02.318Z,99059.47
2019-02-27T09:44:36.347Z,99059.13
2019-02-27T09:47:04.877Z,99070.72
2019-02-27T09:49:37.988Z,99066.53
2019-02-27T09:52:07.601Z,99071.97
2019-02-27T09:54:39.456Z,99068.31
2019-02-27T09:57:11.625Z,99075.55
2019-02-27T09:59:42.066Z,99077.09
2019-02-27T10:02:12.672Z,99074.61
2019-02-27T10:04:43.014Z,99085.72
2019-02-27T10:07:14.651Z,99082.94
2019-02-27T10:09:45.588Z,99091.50
2019-02-27T10:12:16.030Z,99077.29
2019-02-27T10:14:47.925Z,99091.88
2019-02-27T10:17:19.113Z,99102.89
2019-02-27T10:19:49.613Z,99087.08
2019-02-27T10:22:24.579Z,99086.22
2019-02-27T10:25:01.322Z,99088.89
2019-02-27T10:27:29.472Z,99077.98
2019-02-27T10:30:11.139Z,99072.27
2019-02-27T10:32:36.599Z,99061.50
2019-02-27T10:35:08.653Z,99073.46
2019-02-27T10:37:42.009Z,99075.70
2019-02-27T10:40:21.654Z,99077.17
2019-02-27T10:42:52.066Z,99073.09
2019-02-27T10:45:22.415Z,99070.73
2019-02-27T10:47:52.822Z,99077.13
2019-02-27T10:50:27.675Z,99063.39
2019-02-27T10:53:08.723Z,99066.81
2019-02-27T10:55:39.194Z,99071.76
2019-02-27T10:58:12.880Z,99074.71
2019-02-27T11:00:41.513Z,99075.41
2019-02-27T11:03:16.013Z,99082.47
2019-02-27T11:05:46.407Z,99077.55
2019-02-27T11:08:17.056Z,99071.94
2019-02-27T11:10:51.468Z,99083.69
2019-02-27T11:13:21.913Z,99069.77
2019-02-27T11:15:52.300Z,99084.02
2019-02-27T11:18:22.736Z,99078.49
2019-02-27T11:20:55.714Z,99090.98
2019-02-27T11:23:30.287Z,99077.98
2019-02-27T11:26:00.715Z,99077.98
2019-02-27T11:28:34.600Z,99077.98
2019-02-27T11:31:08.424Z,99085.71
2019-02-27T11:33:43.002Z,99076.47
2019-02-27T11:36:13.606Z,99073.09
2019-02-27T11:38:46.036Z,99069.42
2019-02-27T11:41:16.431Z,99074.83
2019-02-27T11:43:48.496Z,99078.05
2019-02-27T11:46:18.995Z,99078.78
2019-02-27T11:48:49.896Z,99082.23
2019-02-27T11:51:27.988Z,99092.42
2019-02-27T11:53:57.650Z,99078.57
2019-02-27T11:56:34.818Z,99078.49
2019-02-27T11:59:05.490Z,99086.63
2019-02-27T12:01:37.563Z,99092.09
2019-02-27T12:04:08.230Z,99096.41
2019-02-27T12:06:41.589Z,99086.28
2019-02-27T12:09:12.030Z,99095.72
2019-02-27T12:11:48.295Z,99085.67
2019-02-27T12:14:14.949Z,99094.95
2019-02-27T12:16:45.529Z,99090.69
2019-02-27T12:19:15.998Z,99097.62
2019-02-27T12:21:46.525Z,99096.30
2019-02-27T12:24:27.834Z,99092.48
2019-02-27T12:26:58.334Z,99093.08
2019-02-27T12:29:32.423Z,99105.36
2019-02-27T12:32:02.908Z,99105.80
2019-02-27T12:34:37.083Z,99103.45
2019-02-27T12:37:16.400Z,99099.97
2019-02-27T12:39:39.780Z,99100.10
2019-02-27T12:42:10.280Z,99122.43
2019-02-27T12:44:40.886Z,99097.89
2019-02-27T12:47:15.736Z,99103.06
2019-02-27T12:49:46.209Z,99108.06
2019-02-27T12:52:16.514Z,99105.48
2019-02-27T12:54:48.545Z,99105.43
2019-02-27T12:57:19.090Z,99110.57
2019-02-27T12:59:49.435Z,99113.02
2019-02-27T13:02:24.417Z,99104.13
2019-02-27T13:04:52.632Z,99106.62
2019-02-27T13:07:23.676Z,99111.75
2019-02-27T13:09:58.478Z,99110.71
2019-02-27T13:12:26.377Z,99115.79
2019-02-27T13:14:56.779Z,99112.17
2019-02-27T13:17:27.195Z,99108.97
2019-02-27T13:20:00.242Z,99110.70
2019-02-27T13:22:32.144Z,99111.65
2019-02-27T13:25:05.550Z,99114.33
2019-02-27T13:27:35.981Z,99118.46
2019-02-27T13:30:09.770Z,99120.88
2019-02-27T13:32:40.210Z,99121.66
2019-02-27T13:35:10.691Z,99122.89
2019-02-27T13:37:43.760Z,99119.03
2019-02-27T13:40:16.492Z,99128.92
2019-02-27T13:42:46.980Z,99129.44
2019-02-27T13:45:27.928Z,99127.50
2019-02-27T13:47:59.077Z,99127.08
2019-02-27T13:50:32.259Z,99133.48
2019-02-27T13:53:02.707Z,99129.67
2019-02-27T13:55:33.213Z,99127.84
2019-02-27T13:58:05.219Z,99134.88
2019-02-27T14:00:37.347Z,99143.27
2019-02-27T14:03:12.374Z,99138.13
2019-02-27T14:05:42.763Z,99130.42
2019-02-27T14:08:13.240Z,99138.20
2019-02-27T14:10:43.817Z,99127.16
2019-02-27T14:16:41.366Z,99132.43
2019-02-27T14:19:15.414Z,99139.37
2019-02-27T14:21:49.814Z,99135.13
2019-02-27T14:24:21.303Z,99139.27
2019-02-27T14:27:19.425Z,99150.76
2019-02-27T14:29:56.129Z,99154.14
2019-02-27T14:32:55.961Z,99156.20
2019-02-27T14:35:44.785Z,99165.41
2019-02-27T14:38:34.373Z,99159.23
2019-02-27T14:41:04.819Z,99158.75
2019-02-27T14:43:35.292Z,99156.80
2019-02-27T14:46:11.509Z,99160.38
2019-02-27T14:48:40.563Z,99153.72
2019-02-27T14:51:12.645Z,99165.56
2019-02-27T14:53:43.351Z,99161.27
2019-02-27T14:56:16.198Z,99163.98
2019-02-27T14:58:48.189Z,99162.22
2019-02-27T15:01:18.643Z,99173.28
2019-02-27T15:03:54.809Z,99172.80
2019-02-27T15:06:28.375Z,99173.33
2019-02-27T15:09:03.390Z,99169.97
2019-02-27T15:11:31.195Z,99166.76
2019-02-27T15:14:01.725Z,99172.94
2019-02-27T15:16:34.023Z,99171.75
2019-02-27T15:19:04.580Z,99172.22
2019-02-27T15:21:37.917Z,99171.49
2019-02-27T15:24:10.526Z,99173.09
2019-02-27T15:26:45.395Z,99184.38
2019-02-27T15:29:19.073Z,99183.86
2019-02-27T15:31:52.227Z,99190.70
2019-02-27T15:34:21.695Z,99198.93
2019-02-27T15:36:52.318Z,99195.72
2019-02-27T15:39:22.831Z,99197.41
2019-02-27T15:41:53.293Z,99195.84
2019-02-27T15:44:26.595Z,99200.05
2019-02-27T15:46:58.327Z,99199.58
2019-02-27T15:49:29.312Z,99203.73
2019-02-27T15:51:59.770Z,99215.14
2019-02-27T15:54:30.311Z,99209.17
2019-02-27T15:57:03.715Z,99219.22
2019-02-27T15:59:40.554Z,99221.21
2019-02-27T16:02:08.983Z,99224.47
2019-02-27T16:04:40.371Z,99239.15
2019-02-27T16:07:11.200Z,99235.20
2019-02-27T16:09:46.172Z,99230.92
2019-02-27T16:12:25.675Z,99235.46
2019-02-27T16:14:59.004Z,99222.90
2019-02-27T16:17:33.709Z,99219.64
2019-02-27T16:20:11.337Z,99233.05
2019-02-27T16:22:43.530Z,99234.14
2019-02-27T16:25:19.970Z,99234.27
2019-02-27T16:27:49.947Z,99242.08
2019-02-27T16:30:34.227Z,99237.77
2019-02-27T16:33:07.223Z,99244.19
2019-02-27T16:35:41.444Z,99246.70
2019-02-27T16:38:12.430Z,99251.02
2019-02-27T16:40:42.750Z,99251.96
2019-02-27T16:43:16.867Z,99248.28
2019-02-27T16:45:48.568Z,99241.23
2019-02-27T16:48:19.301Z,99241.82
2019-02-27T16:50:51.132Z,99238.39
2019-02-27T16:53:25.806Z,99239.75
2019-02-27T16:59:42.271Z,99236.44
2019-02-27T17:05:40.283Z,99235.00
2019-02-27T17:08:12.023Z,99235.64
2019-02-27T17:10:42.812Z,99238.27
2019-02-27T17:13:15.480Z,99235.17
2019-02-27T17:15:47.307Z,99229.70
2019-02-27T17:18:17.786Z,99232.08
2019-02-27T17:20:51.221Z,99222.75
2019-02-27T17:23:27.389Z,99230.84
2019-02-27T17:26:05.594Z,99226.82
2019-02-27T17:28:42.006Z,99228.94
2019-02-27T17:31:14.034Z,99226.10
2019-02-27T17:33:45.671Z,99228.64
2019-02-27T17:36:16.199Z,99233.31
2019-02-27T17:38:50.432Z,99234.16
2019-02-27T17:41:28.197Z,99227.00
2019-02-27T17:44:05.123Z,99224.13
2019-02-27T17:46:33.392Z,99226.41
2019-02-27T17:49:04.087Z,99222.51
2019-02-27T17:51:39.550Z,99228.19
2019-02-27T17:54:10.035Z,99227.59
2019-02-27T17:56:40.475Z,99234.04
2019-02-27T17:59:10.978Z,99230.09
2019-02-27T18:01:41.443Z,99235.95
2019-02-27T18:04:14.602Z,99226.79
2019-02-27T18:06:49.112Z,99231.45
2019-02-27T18:09:23.517Z,99227.59
2019-02-27T18:11:57.184Z,99224.63
2019-02-27T18:14:28.383Z,99227.27
2019-02-27T18:17:00.339Z,99227.51
2019-02-27T18:19:30.873Z,99233.88
2019-02-27T18:22:02.981Z,99233.40
2019-02-27T18:24:34.377Z,99231.16
2019-02-27T18:27:05.499Z,99237.22
2019-02-27T18:29:36.006Z,99238.70
2019-02-27T18:32:06.814Z,99235.04
2019-02-27T18:34:37.395Z,99234.32
2019-02-27T18:37:07.924Z,99239.45
2019-02-27T18:39:38.491Z,99233.98
2019-02-27T18:42:09.044Z,99237.45
2019-02-27T18:44:44.770Z,99241.39
2019-02-27T18:47:16.918Z,99234.60
2019-02-27T18:49:49.014Z,99235.16
2019-02-27T18:52:21.618Z,99236.16
2019-02-27T18:54:55.646Z,99233.29
2019-02-27T18:57:26.098Z,99235.00
2019-02-27T19:00:01.401Z,99239.53
2019-02-27T19:02:32.636Z,99233.69
2019-02-27T19:05:11.675Z,99222.17
2019-02-27T19:07:42.307Z,99225.63
2019-02-27T19:10:17.369Z,99222.76
2019-02-27T19:12:49.070Z,99220.16
2019-02-27T19:15:22.309Z,99218.24
2019-02-27T19:18:06.642Z,99215.14
2019-02-27T19:20:43.891Z,99206.95
2019-02-27T19:23:17.869Z,99205.04
2019-02-27T19:25:49.096Z,99195.02
2019-02-27T19:28:24.601Z,99195.27
2019-02-27T19:30:53.508Z,99198.02
2019-02-27T19:33:23.956Z,99187.05
2019-02-27T19:35:56.370Z,99184.54
2019-02-27T19:38:26.633Z,99172.72
2019-02-27T19:40:57.219Z,99179.41
2019-02-27T19:43:29.225Z,99183.08
2019-02-27T19:45:59.621Z,99184.72
2019-02-27T19:48:30.067Z,99180.66
2019-02-27T19:51:00.586Z,99184.73
2019-02-27T19:53:31.106Z,99178.98
2019-02-27T19:56:01.733Z,99188.27
2019-02-27T19:58:32.301Z,99186.23
2019-02-27T20:01:02.745Z,99189.61
2019-02-27T20:03:35.524Z,99182.81
2019-02-27T20:06:05.422Z,99187.47
2019-02-27T20:08:35.950Z,99170.66
2019-02-27T20:11:06.781Z,99171.99
2019-02-27T20:13:37.342Z,99171.15
2019-02-27T20:16:07.985Z,99166.14
2019-02-27T20:18:40.523Z,99169.25
2019-02-27T20:21:12.348Z,99161.38
2019-02-27T20:23:42.829Z,99152.44
2019-02-27T20:26:14.447Z,99150.29
2019-02-27T20:28:46.138Z,99153.63
2019-02-27T20:31:20.259Z,99151.12
2019-02-27T20:33:48.806Z,99139.36
2019-02-27T20:36:19.217Z,99134.13
2019-02-27T20:38:50.621Z,99138.33
2019-02-27T20:41:23.318Z,99132.25
2019-02-27T20:43:53.761Z,99130.82
2019-02-27T20:46:29.287Z,99127.36
2019-02-27T20:49:03.511Z,99121.39
2019-02-27T20:51:33.947Z,99115.56
2019-02-27T20:54:06.331Z,99115.08
2019-02-27T20:56:36.860Z,99112.55
2019-02-27T20:59:08.048Z,99113.87
2019-02-27T21:01:38.458Z,99101.32
2019-02-27T21:04:08.853Z,99104.56
2019-02-27T21:06:39.328Z,99100.61
2019-02-27T21:09:11.828Z,99099.27
2019-02-27T21:11:42.512Z,99089.15
2019-02-27T21:14:12.923Z,99082.22
2019-02-27T21:16:45.643Z,99077.81
2019-02-27T21:19:15.673Z,99071.04
2019-02-27T21:21:46.076Z,99074.50
2019-02-27T21:24:16.521Z,99078.68
2019-02-27T21:26:47.062Z,99074.18
2019-02-27T21:29:19.139Z,99075.86
2019-02-27T21:31:49.574Z,99073.85
2019-02-27T21:34:23.067Z,99076.13
2019-02-27T21:36:53.638Z,99075.56
2019-02-27T21:39:26.892Z,99076.12
2019-02-27T21:41:57.444Z,99075.19
2019-02-27T21:44:29.913Z,99076.85
2019-02-27T21:47:01.909Z,99074.95
2019-02-27T21:49:32.834Z,99067.92
2019-02-27T21:52:03.277Z,99069.48
2019-02-27T21:54:38.428Z,99063.18
2019-02-27T21:57:05.865Z,99064.61
2019-02-27T21:59:39.836Z,99064.83
2019-02-27T22:02:08.487Z,99056.16
2019-02-27T22:04:41.252Z,99054.85
2019-02-27T22:07:11.127Z,99048.78
2019-02-27T22:09:44.573Z,99047.70
2019-02-27T22:12:13.701Z,99053.41
2019-02-27T22:14:44.086Z,99051.88
2019-02-27T22:17:14.488Z,99046.77
2019-02-27T22:19:44.955Z,99051.50
2019-02-27T22:22:15.344Z,99058.43
2019-02-27T22:24:46.021Z,99057.71
2019-02-27T22:27:16.470Z,99057.92
2019-02-27T22:29:46.908Z,99057.34
2019-02-27T22:32:17.895Z,99057.34
2019-02-27T22:34:48.329Z,99060.20
2019-02-27T22:37:18.943Z,99054.71
2019-02-27T22:39:50.740Z,99047.45
2019-02-27T22:42:22.573Z,99044.59
2019-02-27T22:44:52.989Z,99051.52
2019-02-27T22:47:23.416Z,99051.73
2019-02-27T22:49:53.906Z,99050.33
2019-02-27T22:52:24.403Z,99047.70
2019-02-27T22:54:54.865Z,99050.20
2019-02-27T22:57:25.265Z,99047.69
2019-02-27T22:59:57.586Z,99041.50
2019-02-27T23:02:29.562Z,99041.50
2019-02-27T23:05:01.421Z,99042.95
2019-02-27T23:07:32.198Z,99036.98
2019-02-27T23:10:02.627Z,99032.58
2019-02-27T23:12:33.069Z,99026.98
2019-02-27T23:15:03.739Z,99023.78
2019-02-27T23:17:35.267Z,99023.78
2019-02-27T23:20:06.151Z,99021.86
2019-02-27T23:22:36.663Z,99017.59
2019-02-27T23:25:09.701Z,99017.23
2019-02-27T23:27:40.101Z,99016.03
2019-02-27T23:30:15.888Z,99020.33
2019-02-27T23:32:43.799Z,99020.33
2019-02-27T23:35:16.896Z,99013.30
2019-02-27T23:37:47.363Z,99012.34
2019-02-27T23:40:18.162Z,99012.11
2019-02-27T23:42:48.562Z,99012.11
2019-02-27T23:45:19.040Z,98996.75
2019-02-27T23:47:49.449Z,98995.22
2019-02-27T23:50:19.883Z,98977.73
2019-02-27T23:52:53.203Z,98984.63
2019-02-27T23:55:23.681Z,98990.20
2019-02-27T23:57:57.542Z,98997.34
